sensor_id;sensor_type;location;lat;lon;timestamp;P1;durP1;ratioP1;P2;durP2;ratioP2
49812;SDS011;35706;52.100;5.056;2023-06-22T00:00:23;3.58;;;1.35;;
49812;SDS011;35706;52.100;5.056;2023-06-22T00:01:23;2.92;;;0.98;;
49812;SDS011;35706;52.100;5.056;2023-06-22T00:02:24;2.55;;;0.88;;
49812;SDS011;35706;52.100;5.056;2023-06-22T00:03:24;2.20;;;0.73;;
49812;SDS011;35706;52.100;5.056;2023-06-22T00:04:25;2.17;;;1.27;;
49812;SDS011;35706;52.100;5.056;2023-06-22T00:05:26;3.17;;;0.90;;
49812;SDS011;35706;52.100;5.056;2023-06-22T00:06:27;2.75;;;0.80;;
49812;SDS011;35706;52.100;5.056;2023-06-22T00:07:28;3.90;;;0.90;;
49812;SDS011;35706;52.100;5.056;2023-06-22T00:08:28;2.85;;;0.60;;
49812;SDS011;35706;52.100;5.056;2023-06-22T00:09:29;2.15;;;0.75;;
49812;SDS011;35706;52.100;5.056;2023-06-22T00:10:30;2.55;;;0.70;;
49812;SDS011;35706;52.100;5.056;2023-06-22T00:11:30;1.63;;;0.80;;
49812;SDS011;35706;52.100;5.056;2023-06-22T00:12:32;1.48;;;0.60;;
49812;SDS011;35706;52.100;5.056;2023-06-22T00:13:33;1.48;;;0.90;;
49812;SDS011;35706;52.100;5.056;2023-06-22T00:14:33;3.22;;;1.88;;
49812;SDS011;35706;52.100;5.056;2023-06-22T00:15:34;3.22;;;1.83;;
49812;SDS011;35706;52.100;5.056;2023-06-22T00:16:35;2.78;;;0.80;;
49812;SDS011;35706;52.100;5.056;2023-06-22T00:17:35;3.22;;;0.90;;
49812;SDS011;35706;52.100;5.056;2023-06-22T00:18:35;2.03;;;1.10;;
49812;SDS011;35706;52.100;5.056;2023-06-22T00:19:36;2.90;;;0.80;;
49812;SDS011;35706;52.100;5.056;2023-06-22T00:20:36;2.00;;;1.27;;
49812;SDS011;35706;52.100;5.056;2023-06-22T00:21:37;2.67;;;0.80;;
49812;SDS011;35706;52.100;5.056;2023-06-22T00:22:38;6.38;;;1.15;;
49812;SDS011;35706;52.100;5.056;2023-06-22T00:23:39;3.17;;;0.98;;
49812;SDS011;35706;52.100;5.056;2023-06-22T00:24:39;6.03;;;1.27;;
49812;SDS011;35706;52.100;5.056;2023-06-22T00:25:40;2.33;;;0.77;;
49812;SDS011;35706;52.100;5.056;2023-06-22T00:26:40;2.75;;;1.25;;
49812;SDS011;35706;52.100;5.056;2023-06-22T00:27:40;2.42;;;0.95;;
49812;SDS011;35706;52.100;5.056;2023-06-22T00:28:41;1.83;;;0.70;;
49812;SDS011;35706;52.100;5.056;2023-06-22T00:29:41;2.15;;;0.73;;
49812;SDS011;35706;52.100;5.056;2023-06-22T00:30:41;1.50;;;0.80;;
49812;SDS011;35706;52.100;5.056;2023-06-22T00:31:42;2.58;;;0.90;;
49812;SDS011;35706;52.100;5.056;2023-06-22T00:32:43;8.27;;;1.35;;
49812;SDS011;35706;52.100;5.056;2023-06-22T00:33:44;2.10;;;1.20;;
49812;SDS011;35706;52.100;5.056;2023-06-22T00:34:44;2.40;;;0.80;;
49812;SDS011;35706;52.100;5.056;2023-06-22T00:35:44;2.45;;;0.80;;
49812;SDS011;35706;52.100;5.056;2023-06-22T00:36:45;2.42;;;0.90;;
49812;SDS011;35706;52.100;5.056;2023-06-22T00:37:45;6.30;;;1.42;;
49812;SDS011;35706;52.100;5.056;2023-06-22T00:38:45;1.65;;;1.02;;
49812;SDS011;35706;52.100;5.056;2023-06-22T00:39:45;2.83;;;1.10;;
49812;SDS011;35706;52.100;5.056;2023-06-22T00:40:46;1.35;;;0.70;;
49812;SDS011;35706;52.100;5.056;2023-06-22T00:41:46;4.78;;;1.73;;
49812;SDS011;35706;52.100;5.056;2023-06-22T00:42:46;5.30;;;2.30;;
49812;SDS011;35706;52.100;5.056;2023-06-22T00:43:47;3.25;;;0.80;;
49812;SDS011;35706;52.100;5.056;2023-06-22T00:44:47;2.45;;;1.00;;
49812;SDS011;35706;52.100;5.056;2023-06-22T00:45:48;2.20;;;1.25;;
49812;SDS011;35706;52.100;5.056;2023-06-22T00:46:48;2.85;;;0.70;;
49812;SDS011;35706;52.100;5.056;2023-06-22T00:47:50;2.08;;;0.75;;
49812;SDS011;35706;52.100;5.056;2023-06-22T00:48:51;4.97;;;1.35;;
49812;SDS011;35706;52.100;5.056;2023-06-22T00:49:52;3.85;;;1.45;;
49812;SDS011;35706;52.100;5.056;2023-06-22T00:50:52;2.58;;;1.60;;
49812;SDS011;35706;52.100;5.056;2023-06-22T00:51:55;2.65;;;1.10;;
49812;SDS011;35706;52.100;5.056;2023-06-22T00:52:57;2.85;;;1.10;;
49812;SDS011;35706;52.100;5.056;2023-06-22T00:54:00;5.20;;;1.48;;
49812;SDS011;35706;52.100;5.056;2023-06-22T00:55:01;2.38;;;1.25;;
49812;SDS011;35706;52.100;5.056;2023-06-22T00:56:02;2.13;;;1.50;;
49812;SDS011;35706;52.100;5.056;2023-06-22T00:57:03;3.35;;;2.60;;
49812;SDS011;35706;52.100;5.056;2023-06-22T00:58:04;4.95;;;2.85;;
49812;SDS011;35706;52.100;5.056;2023-06-22T00:59:10;1.55;;;0.90;;
49812;SDS011;35706;52.100;5.056;2023-06-22T01:00:12;1.88;;;1.20;;
49812;SDS011;35706;52.100;5.056;2023-06-22T01:01:18;4.13;;;2.05;;
49812;SDS011;35706;52.100;5.056;2023-06-22T01:02:23;3.60;;;1.30;;
49812;SDS011;35706;52.100;5.056;2023-06-22T01:03:23;4.13;;;1.95;;
49812;SDS011;35706;52.100;5.056;2023-06-22T01:04:24;2.70;;;1.25;;
49812;SDS011;35706;52.100;5.056;2023-06-22T01:05:34;7.30;;;2.05;;
49812;SDS011;35706;52.100;5.056;2023-06-22T01:06:38;2.85;;;1.88;;
49812;SDS011;35706;52.100;5.056;2023-06-22T01:07:45;3.58;;;1.52;;
49812;SDS011;35706;52.100;5.056;2023-06-22T01:09:18;4.18;;;2.10;;
49812;SDS011;35706;52.100;5.056;2023-06-22T01:11:48;2.50;;;1.00;;
49812;SDS011;35706;52.100;5.056;2023-06-22T01:12:56;4.18;;;1.42;;
49812;SDS011;35706;52.100;5.056;2023-06-22T01:14:10;5.90;;;2.13;;
49812;SDS011;35706;52.100;5.056;2023-06-22T01:15:23;3.60;;;2.83;;
49812;SDS011;35706;52.100;5.056;2023-06-22T01:16:43;4.65;;;2.25;;
49812;SDS011;35706;52.100;5.056;2023-06-22T01:17:44;5.15;;;2.40;;
49812;SDS011;35706;52.100;5.056;2023-06-22T01:18:48;3.55;;;1.35;;
49812;SDS011;35706;52.100;5.056;2023-06-22T01:19:54;3.28;;;1.75;;
49812;SDS011;35706;52.100;5.056;2023-06-22T01:20:55;3.38;;;1.40;;
49812;SDS011;35706;52.100;5.056;2023-06-22T01:22:00;4.22;;;3.03;;
49812;SDS011;35706;52.100;5.056;2023-06-22T01:26:12;5.13;;;2.50;;
49812;SDS011;35706;52.100;5.056;2023-06-22T01:28:56;2.25;;;1.35;;
49812;SDS011;35706;52.100;5.056;2023-06-22T01:30:01;3.47;;;1.67;;
49812;SDS011;35706;52.100;5.056;2023-06-22T01:31:05;5.15;;;1.95;;
49812;SDS011;35706;52.100;5.056;2023-06-22T01:32:08;2.78;;;1.58;;
49812;SDS011;35706;52.100;5.056;2023-06-22T01:33:11;3.78;;;2.08;;
49812;SDS011;35706;52.100;5.056;2023-06-22T01:34:13;5.07;;;2.30;;
49812;SDS011;35706;52.100;5.056;2023-06-22T01:35:15;5.15;;;2.97;;
49812;SDS011;35706;52.100;5.056;2023-06-22T01:36:17;4.82;;;3.28;;
49812;SDS011;35706;52.100;5.056;2023-06-22T01:37:19;4.05;;;2.90;;
49812;SDS011;35706;52.100;5.056;2023-06-22T01:38:19;6.45;;;3.28;;
49812;SDS011;35706;52.100;5.056;2023-06-22T01:39:20;6.82;;;3.13;;
49812;SDS011;35706;52.100;5.056;2023-06-22T01:40:21;3.85;;;3.55;;
49812;SDS011;35706;52.100;5.056;2023-06-22T01:41:25;1.90;;;1.33;;
49812;SDS011;35706;52.100;5.056;2023-06-22T01:42:26;4.60;;;1.90;;
49812;SDS011;35706;52.100;5.056;2023-06-22T01:43:27;3.45;;;1.42;;
49812;SDS011;35706;52.100;5.056;2023-06-22T01:44:28;8.95;;;4.68;;
49812;SDS011;35706;52.100;5.056;2023-06-22T01:45:29;7.20;;;4.10;;
49812;SDS011;35706;52.100;5.056;2023-06-22T01:46:30;3.95;;;2.20;;
49812;SDS011;35706;52.100;5.056;2023-06-22T01:47:31;5.35;;;2.78;;
49812;SDS011;35706;52.100;5.056;2023-06-22T01:48:32;5.80;;;1.73;;
49812;SDS011;35706;52.100;5.056;2023-06-22T01:49:33;5.25;;;1.52;;
49812;SDS011;35706;52.100;5.056;2023-06-22T01:50:33;5.97;;;4.05;;
49812;SDS011;35706;52.100;5.056;2023-06-22T01:51:33;8.35;;;4.78;;
49812;SDS011;35706;52.100;5.056;2023-06-22T01:52:34;10.73;;;4.00;;
49812;SDS011;35706;52.100;5.056;2023-06-22T01:53:34;5.60;;;3.17;;
49812;SDS011;35706;52.100;5.056;2023-06-22T01:54:34;4.40;;;2.00;;
49812;SDS011;35706;52.100;5.056;2023-06-22T01:55:35;4.03;;;3.58;;
49812;SDS011;35706;52.100;5.056;2023-06-22T01:56:35;5.72;;;4.65;;
49812;SDS011;35706;52.100;5.056;2023-06-22T01:57:36;8.05;;;5.28;;
49812;SDS011;35706;52.100;5.056;2023-06-22T01:58:40;5.82;;;2.80;;
49812;SDS011;35706;52.100;5.056;2023-06-22T01:59:56;9.13;;;5.63;;
49812;SDS011;35706;52.100;5.056;2023-06-22T02:02:11;4.78;;;2.20;;
49812;SDS011;35706;52.100;5.056;2023-06-22T02:03:15;5.40;;;3.47;;
49812;SDS011;35706;52.100;5.056;2023-06-22T02:04:20;5.05;;;2.92;;
49812;SDS011;35706;52.100;5.056;2023-06-22T02:05:24;6.22;;;3.17;;
49812;SDS011;35706;52.100;5.056;2023-06-22T02:06:31;7.57;;;4.50;;
49812;SDS011;35706;52.100;5.056;2023-06-22T02:07:44;3.80;;;2.22;;
49812;SDS011;35706;52.100;5.056;2023-06-22T02:08:49;4.68;;;4.20;;
49812;SDS011;35706;52.100;5.056;2023-06-22T02:09:54;6.78;;;5.80;;
49812;SDS011;35706;52.100;5.056;2023-06-22T02:10:56;2.67;;;2.10;;
49812;SDS011;35706;52.100;5.056;2023-06-22T02:11:57;4.47;;;2.53;;
49812;SDS011;35706;52.100;5.056;2023-06-22T02:13:03;5.05;;;4.15;;
49812;SDS011;35706;52.100;5.056;2023-06-22T02:14:06;3.42;;;2.28;;
49812;SDS011;35706;52.100;5.056;2023-06-22T02:15:07;5.68;;;3.78;;
49812;SDS011;35706;52.100;5.056;2023-06-22T02:16:13;4.75;;;3.08;;
49812;SDS011;35706;52.100;5.056;2023-06-22T02:17:15;7.05;;;5.18;;
49812;SDS011;35706;52.100;5.056;2023-06-22T02:18:16;2.88;;;2.15;;
49812;SDS011;35706;52.100;5.056;2023-06-22T02:19:17;6.55;;;4.82;;
49812;SDS011;35706;52.100;5.056;2023-06-22T02:20:18;6.72;;;4.45;;
49812;SDS011;35706;52.100;5.056;2023-06-22T02:21:19;5.55;;;3.75;;
49812;SDS011;35706;52.100;5.056;2023-06-22T02:22:19;7.28;;;4.05;;
49812;SDS011;35706;52.100;5.056;2023-06-22T02:23:20;9.77;;;4.28;;
49812;SDS011;35706;52.100;5.056;2023-06-22T02:24:20;5.30;;;4.53;;
49812;SDS011;35706;52.100;5.056;2023-06-22T02:25:23;3.28;;;2.00;;
49812;SDS011;35706;52.100;5.056;2023-06-22T02:26:23;3.03;;;2.15;;
49812;SDS011;35706;52.100;5.056;2023-06-22T02:27:25;7.10;;;4.53;;
49812;SDS011;35706;52.100;5.056;2023-06-22T02:28:26;4.47;;;3.25;;
49812;SDS011;35706;52.100;5.056;2023-06-22T02:29:26;4.45;;;2.85;;
49812;SDS011;35706;52.100;5.056;2023-06-22T02:30:27;4.72;;;3.22;;
49812;SDS011;35706;52.100;5.056;2023-06-22T02:31:27;3.90;;;3.60;;
49812;SDS011;35706;52.100;5.056;2023-06-22T02:32:30;4.28;;;3.08;;
49812;SDS011;35706;52.100;5.056;2023-06-22T02:33:30;5.88;;;4.25;;
49812;SDS011;35706;52.100;5.056;2023-06-22T02:34:31;4.15;;;2.17;;
49812;SDS011;35706;52.100;5.056;2023-06-22T02:35:33;3.50;;;2.45;;
49812;SDS011;35706;52.100;5.056;2023-06-22T02:36:35;4.05;;;2.80;;
49812;SDS011;35706;52.100;5.056;2023-06-22T02:37:36;4.97;;;3.72;;
49812;SDS011;35706;52.100;5.056;2023-06-22T02:38:41;4.45;;;3.53;;
49812;SDS011;35706;52.100;5.056;2023-06-22T02:39:48;7.82;;;5.80;;
49812;SDS011;35706;52.100;5.056;2023-06-22T02:40:48;4.22;;;3.83;;
49812;SDS011;35706;52.100;5.056;2023-06-22T02:41:52;15.52;;;7.25;;
49812;SDS011;35706;52.100;5.056;2023-06-22T02:42:53;7.60;;;5.18;;
49812;SDS011;35706;52.100;5.056;2023-06-22T02:43:54;7.20;;;2.95;;
49812;SDS011;35706;52.100;5.056;2023-06-22T02:44:54;6.97;;;4.70;;
49812;SDS011;35706;52.100;5.056;2023-06-22T02:45:55;9.98;;;6.85;;
49812;SDS011;35706;52.100;5.056;2023-06-22T02:46:55;5.10;;;3.80;;
49812;SDS011;35706;52.100;5.056;2023-06-22T02:47:55;5.90;;;3.28;;
49812;SDS011;35706;52.100;5.056;2023-06-22T02:48:56;4.55;;;3.13;;
49812;SDS011;35706;52.100;5.056;2023-06-22T02:49:57;4.25;;;3.83;;
49812;SDS011;35706;52.100;5.056;2023-06-22T02:50:57;6.50;;;2.60;;
49812;SDS011;35706;52.100;5.056;2023-06-22T02:51:57;4.50;;;2.60;;
49812;SDS011;35706;52.100;5.056;2023-06-22T02:52:57;3.75;;;3.20;;
49812;SDS011;35706;52.100;5.056;2023-06-22T02:53:58;8.02;;;6.47;;
49812;SDS011;35706;52.100;5.056;2023-06-22T02:54:58;5.25;;;4.75;;
49812;SDS011;35706;52.100;5.056;2023-06-22T02:55:58;9.55;;;4.53;;
49812;SDS011;35706;52.100;5.056;2023-06-22T02:57:01;3.72;;;3.05;;
49812;SDS011;35706;52.100;5.056;2023-06-22T02:58:04;4.68;;;2.30;;
49812;SDS011;35706;52.100;5.056;2023-06-22T02:59:05;5.32;;;2.42;;
49812;SDS011;35706;52.100;5.056;2023-06-22T03:00:05;6.00;;;5.35;;
49812;SDS011;35706;52.100;5.056;2023-06-22T03:01:16;4.72;;;3.80;;
49812;SDS011;35706;52.100;5.056;2023-06-22T03:02:16;5.57;;;3.65;;
49812;SDS011;35706;52.100;5.056;2023-06-22T03:03:17;4.93;;;4.43;;
49812;SDS011;35706;52.100;5.056;2023-06-22T03:04:18;3.80;;;3.00;;
49812;SDS011;35706;52.100;5.056;2023-06-22T03:05:18;3.95;;;3.65;;
49812;SDS011;35706;52.100;5.056;2023-06-22T03:06:18;6.07;;;2.95;;
49812;SDS011;35706;52.100;5.056;2023-06-22T03:07:23;8.23;;;5.38;;
49812;SDS011;35706;52.100;5.056;2023-06-22T03:08:23;5.20;;;3.22;;
49812;SDS011;35706;52.100;5.056;2023-06-22T03:09:23;9.30;;;5.55;;
49812;SDS011;35706;52.100;5.056;2023-06-22T03:10:24;7.57;;;4.88;;
49812;SDS011;35706;52.100;5.056;2023-06-22T03:11:24;5.20;;;4.65;;
49812;SDS011;35706;52.100;5.056;2023-06-22T03:12:24;6.22;;;3.60;;
49812;SDS011;35706;52.100;5.056;2023-06-22T03:13:25;5.07;;;3.88;;
49812;SDS011;35706;52.100;5.056;2023-06-22T03:14:25;4.53;;;3.33;;
49812;SDS011;35706;52.100;5.056;2023-06-22T03:15:26;4.57;;;2.85;;
49812;SDS011;35706;52.100;5.056;2023-06-22T03:16:29;6.32;;;4.03;;
49812;SDS011;35706;52.100;5.056;2023-06-22T03:17:29;6.72;;;3.58;;
49812;SDS011;35706;52.100;5.056;2023-06-22T03:18:29;5.07;;;3.50;;
49812;SDS011;35706;52.100;5.056;2023-06-22T03:19:30;4.90;;;4.43;;
49812;SDS011;35706;52.100;5.056;2023-06-22T03:20:31;5.18;;;2.85;;
49812;SDS011;35706;52.100;5.056;2023-06-22T03:21:33;6.30;;;3.83;;
49812;SDS011;35706;52.100;5.056;2023-06-22T03:22:33;4.63;;;3.67;;
49812;SDS011;35706;52.100;5.056;2023-06-22T03:23:34;5.45;;;3.78;;
49812;SDS011;35706;52.100;5.056;2023-06-22T03:24:34;4.78;;;3.35;;
49812;SDS011;35706;52.100;5.056;2023-06-22T03:25:37;4.82;;;2.00;;
49812;SDS011;35706;52.100;5.056;2023-06-22T03:26:37;5.10;;;2.30;;
49812;SDS011;35706;52.100;5.056;2023-06-22T03:27:38;3.58;;;2.78;;
49812;SDS011;35706;52.100;5.056;2023-06-22T03:28:38;4.68;;;4.18;;
49812;SDS011;35706;52.100;5.056;2023-06-22T03:29:39;4.18;;;2.67;;
49812;SDS011;35706;52.100;5.056;2023-06-22T03:30:39;7.35;;;4.13;;
49812;SDS011;35706;52.100;5.056;2023-06-22T03:31:39;3.88;;;3.30;;
49812;SDS011;35706;52.100;5.056;2023-06-22T03:32:40;5.30;;;4.50;;
49812;SDS011;35706;52.100;5.056;2023-06-22T03:33:40;7.22;;;4.85;;
49812;SDS011;35706;52.100;5.056;2023-06-22T03:34:43;5.13;;;4.43;;
49812;SDS011;35706;52.100;5.056;2023-06-22T03:35:46;7.05;;;3.90;;
49812;SDS011;35706;52.100;5.056;2023-06-22T03:36:47;8.85;;;3.03;;
49812;SDS011;35706;52.100;5.056;2023-06-22T03:37:48;5.25;;;4.22;;
49812;SDS011;35706;52.100;5.056;2023-06-22T03:38:48;9.02;;;5.80;;
49812;SDS011;35706;52.100;5.056;2023-06-22T03:39:50;6.28;;;2.25;;
49812;SDS011;35706;52.100;5.056;2023-06-22T03:40:50;5.28;;;2.70;;
49812;SDS011;35706;52.100;5.056;2023-06-22T03:41:50;9.30;;;5.28;;
49812;SDS011;35706;52.100;5.056;2023-06-22T03:42:51;4.15;;;3.08;;
49812;SDS011;35706;52.100;5.056;2023-06-22T03:43:51;8.25;;;4.75;;
49812;SDS011;35706;52.100;5.056;2023-06-22T03:44:51;5.13;;;1.88;;
49812;SDS011;35706;52.100;5.056;2023-06-22T03:45:52;6.82;;;3.85;;
49812;SDS011;35706;52.100;5.056;2023-06-22T03:46:52;3.75;;;1.90;;
49812;SDS011;35706;52.100;5.056;2023-06-22T03:47:52;7.32;;;3.90;;
49812;SDS011;35706;52.100;5.056;2023-06-22T03:48:53;8.32;;;4.18;;
49812;SDS011;35706;52.100;5.056;2023-06-22T03:49:53;3.42;;;2.22;;
49812;SDS011;35706;52.100;5.056;2023-06-22T03:50:55;8.55;;;5.30;;
49812;SDS011;35706;52.100;5.056;2023-06-22T03:51:55;4.10;;;3.38;;
49812;SDS011;35706;52.100;5.056;2023-06-22T03:52:55;3.00;;;2.67;;
49812;SDS011;35706;52.100;5.056;2023-06-22T03:53:56;3.53;;;2.67;;
49812;SDS011;35706;52.100;5.056;2023-06-22T03:54:56;6.35;;;4.63;;
49812;SDS011;35706;52.100;5.056;2023-06-22T03:55:56;4.80;;;3.35;;
49812;SDS011;35706;52.100;5.056;2023-06-22T03:56:57;6.68;;;3.45;;
49812;SDS011;35706;52.100;5.056;2023-06-22T03:57:58;3.95;;;2.67;;
49812;SDS011;35706;52.100;5.056;2023-06-22T03:58:58;8.00;;;5.63;;
49812;SDS011;35706;52.100;5.056;2023-06-22T03:59:59;8.20;;;4.95;;
49812;SDS011;35706;52.100;5.056;2023-06-22T04:01:05;7.53;;;5.22;;
49812;SDS011;35706;52.100;5.056;2023-06-22T04:02:06;9.35;;;5.63;;
49812;SDS011;35706;52.100;5.056;2023-06-22T04:03:06;5.20;;;3.08;;
49812;SDS011;35706;52.100;5.056;2023-06-22T04:04:07;3.10;;;2.38;;
49812;SDS011;35706;52.100;5.056;2023-06-22T04:05:08;3.15;;;2.55;;
49812;SDS011;35706;52.100;5.056;2023-06-22T04:06:09;7.45;;;6.25;;
49812;SDS011;35706;52.100;5.056;2023-06-22T04:07:09;4.97;;;2.47;;
49812;SDS011;35706;52.100;5.056;2023-06-22T04:08:09;5.20;;;3.00;;
49812;SDS011;35706;52.100;5.056;2023-06-22T04:09:10;5.93;;;4.20;;
49812;SDS011;35706;52.100;5.056;2023-06-22T04:10:10;5.30;;;3.03;;
49812;SDS011;35706;52.100;5.056;2023-06-22T04:11:11;10.07;;;5.75;;
49812;SDS011;35706;52.100;5.056;2023-06-22T04:12:11;5.25;;;2.20;;
49812;SDS011;35706;52.100;5.056;2023-06-22T04:13:11;9.13;;;3.15;;
49812;SDS011;35706;52.100;5.056;2023-06-22T04:14:12;6.95;;;2.22;;
49812;SDS011;35706;52.100;5.056;2023-06-22T04:15:12;5.93;;;5.03;;
49812;SDS011;35706;52.100;5.056;2023-06-22T04:16:12;7.30;;;4.63;;
49812;SDS011;35706;52.100;5.056;2023-06-22T04:17:13;16.08;;;5.65;;
49812;SDS011;35706;52.100;5.056;2023-06-22T04:18:14;5.40;;;2.85;;
49812;SDS011;35706;52.100;5.056;2023-06-22T04:19:15;8.13;;;4.93;;
49812;SDS011;35706;52.100;5.056;2023-06-22T04:20:17;6.32;;;4.30;;
49812;SDS011;35706;52.100;5.056;2023-06-22T04:21:17;5.22;;;3.35;;
49812;SDS011;35706;52.100;5.056;2023-06-22T04:22:19;4.65;;;2.92;;
49812;SDS011;35706;52.100;5.056;2023-06-22T04:23:19;8.80;;;2.95;;
49812;SDS011;35706;52.100;5.056;2023-06-22T04:24:20;11.20;;;5.05;;
49812;SDS011;35706;52.100;5.056;2023-06-22T04:25:20;3.67;;;2.42;;
49812;SDS011;35706;52.100;5.056;2023-06-22T04:26:22;5.38;;;3.28;;
49812;SDS011;35706;52.100;5.056;2023-06-22T04:27:22;8.80;;;3.40;;
49812;SDS011;35706;52.100;5.056;2023-06-22T04:28:23;7.78;;;5.85;;
49812;SDS011;35706;52.100;5.056;2023-06-22T04:29:23;8.98;;;5.70;;
49812;SDS011;35706;52.100;5.056;2023-06-22T04:30:28;9.88;;;4.32;;
49812;SDS011;35706;52.100;5.056;2023-06-22T04:31:32;4.35;;;2.92;;
49812;SDS011;35706;52.100;5.056;2023-06-22T04:32:36;6.85;;;3.78;;
49812;SDS011;35706;52.100;5.056;2023-06-22T04:33:37;7.88;;;5.10;;
49812;SDS011;35706;52.100;5.056;2023-06-22T04:34:40;3.60;;;2.35;;
49812;SDS011;35706;52.100;5.056;2023-06-22T04:35:41;6.82;;;3.03;;
49812;SDS011;35706;52.100;5.056;2023-06-22T04:36:42;6.05;;;3.15;;
49812;SDS011;35706;52.100;5.056;2023-06-22T04:37:42;4.05;;;2.65;;
49812;SDS011;35706;52.100;5.056;2023-06-22T04:38:42;3.97;;;2.38;;
49812;SDS011;35706;52.100;5.056;2023-06-22T04:39:44;4.72;;;2.83;;
49812;SDS011;35706;52.100;5.056;2023-06-22T04:40:44;7.25;;;4.75;;
49812;SDS011;35706;52.100;5.056;2023-06-22T04:41:44;5.90;;;4.32;;
49812;SDS011;35706;52.100;5.056;2023-06-22T04:42:45;4.30;;;2.92;;
49812;SDS011;35706;52.100;5.056;2023-06-22T04:43:52;3.33;;;3.03;;
49812;SDS011;35706;52.100;5.056;2023-06-22T04:44:54;5.15;;;3.47;;
49812;SDS011;35706;52.100;5.056;2023-06-22T04:45:54;4.30;;;3.50;;
49812;SDS011;35706;52.100;5.056;2023-06-22T04:46:57;4.78;;;3.33;;
49812;SDS011;35706;52.100;5.056;2023-06-22T04:48:03;7.15;;;4.40;;
49812;SDS011;35706;52.100;5.056;2023-06-22T04:49:07;3.70;;;2.88;;
49812;SDS011;35706;52.100;5.056;2023-06-22T04:50:09;4.63;;;3.42;;
49812;SDS011;35706;52.100;5.056;2023-06-22T04:51:10;6.85;;;5.93;;
49812;SDS011;35706;52.100;5.056;2023-06-22T04:52:11;5.18;;;4.53;;
49812;SDS011;35706;52.100;5.056;2023-06-22T04:53:13;8.63;;;5.78;;
49812;SDS011;35706;52.100;5.056;2023-06-22T04:54:14;7.72;;;4.95;;
49812;SDS011;35706;52.100;5.056;2023-06-22T04:55:14;4.32;;;2.25;;
49812;SDS011;35706;52.100;5.056;2023-06-22T04:56:18;6.88;;;4.93;;
49812;SDS011;35706;52.100;5.056;2023-06-22T04:57:18;8.75;;;4.63;;
49812;SDS011;35706;52.100;5.056;2023-06-22T04:58:19;8.32;;;5.65;;
49812;SDS011;35706;52.100;5.056;2023-06-22T04:59:19;5.22;;;3.88;;
49812;SDS011;35706;52.100;5.056;2023-06-22T05:00:20;5.47;;;4.82;;
49812;SDS011;35706;52.100;5.056;2023-06-22T05:01:23;3.65;;;2.22;;
49812;SDS011;35706;52.100;5.056;2023-06-22T05:02:24;5.80;;;4.38;;
49812;SDS011;35706;52.100;5.056;2023-06-22T05:03:27;5.63;;;3.85;;
49812;SDS011;35706;52.100;5.056;2023-06-22T05:04:28;6.82;;;4.22;;
49812;SDS011;35706;52.100;5.056;2023-06-22T05:05:32;4.38;;;3.40;;
49812;SDS011;35706;52.100;5.056;2023-06-22T05:06:33;6.28;;;4.35;;
49812;SDS011;35706;52.100;5.056;2023-06-22T05:07:34;7.85;;;3.58;;
49812;SDS011;35706;52.100;5.056;2023-06-22T05:08:34;6.38;;;3.90;;
49812;SDS011;35706;52.100;5.056;2023-06-22T05:09:35;7.63;;;4.60;;
49812;SDS011;35706;52.100;5.056;2023-06-22T05:10:35;4.50;;;3.42;;
49812;SDS011;35706;52.100;5.056;2023-06-22T05:11:35;8.13;;;6.00;;
49812;SDS011;35706;52.100;5.056;2023-06-22T05:12:36;9.07;;;6.07;;
49812;SDS011;35706;52.100;5.056;2023-06-22T05:13:36;8.73;;;4.47;;
49812;SDS011;35706;52.100;5.056;2023-06-22T05:14:37;4.82;;;3.03;;
49812;SDS011;35706;52.100;5.056;2023-06-22T05:15:37;7.43;;;4.82;;
49812;SDS011;35706;52.100;5.056;2023-06-22T05:16:41;5.55;;;5.05;;
49812;SDS011;35706;52.100;5.056;2023-06-22T05:17:42;8.73;;;4.82;;
49812;SDS011;35706;52.100;5.056;2023-06-22T05:18:45;8.00;;;3.90;;
49812;SDS011;35706;52.100;5.056;2023-06-22T05:19:45;5.35;;;4.25;;
49812;SDS011;35706;52.100;5.056;2023-06-22T05:20:48;7.35;;;4.57;;
49812;SDS011;35706;52.100;5.056;2023-06-22T05:21:48;6.28;;;5.07;;
49812;SDS011;35706;52.100;5.056;2023-06-22T05:22:48;14.52;;;8.45;;
49812;SDS011;35706;52.100;5.056;2023-06-22T05:23:49;8.13;;;5.82;;
49812;SDS011;35706;52.100;5.056;2023-06-22T05:24:50;7.25;;;5.15;;
49812;SDS011;35706;52.100;5.056;2023-06-22T05:25:51;5.57;;;3.85;;
49812;SDS011;35706;52.100;5.056;2023-06-22T05:26:51;7.55;;;3.53;;
49812;SDS011;35706;52.100;5.056;2023-06-22T05:27:52;7.30;;;6.60;;
49812;SDS011;35706;52.100;5.056;2023-06-22T05:28:52;11.10;;;7.35;;
49812;SDS011;35706;52.100;5.056;2023-06-22T05:29:53;4.88;;;4.43;;
49812;SDS011;35706;52.100;5.056;2023-06-22T05:30:53;5.65;;;3.88;;
49812;SDS011;35706;52.100;5.056;2023-06-22T05:31:54;12.18;;;8.40;;
49812;SDS011;35706;52.100;5.056;2023-06-22T05:32:54;4.68;;;3.70;;
49812;SDS011;35706;52.100;5.056;2023-06-22T05:33:55;3.53;;;3.17;;
49812;SDS011;35706;52.100;5.056;2023-06-22T05:34:56;6.53;;;5.03;;
49812;SDS011;35706;52.100;5.056;2023-06-22T05:35:56;4.43;;;3.85;;
49812;SDS011;35706;52.100;5.056;2023-06-22T05:36:59;6.75;;;4.95;;
49812;SDS011;35706;52.100;5.056;2023-06-22T05:38:00;4.60;;;3.67;;
49812;SDS011;35706;52.100;5.056;2023-06-22T05:39:09;6.40;;;4.45;;
49812;SDS011;35706;52.100;5.056;2023-06-22T05:40:12;7.90;;;5.22;;
49812;SDS011;35706;52.100;5.056;2023-06-22T05:41:12;6.53;;;4.43;;
49812;SDS011;35706;52.100;5.056;2023-06-22T05:42:13;7.45;;;4.72;;
49812;SDS011;35706;52.100;5.056;2023-06-22T05:43:14;9.55;;;5.25;;
49812;SDS011;35706;52.100;5.056;2023-06-22T05:44:15;14.95;;;9.85;;
49812;SDS011;35706;52.100;5.056;2023-06-22T05:45:15;8.27;;;4.95;;
49812;SDS011;35706;52.100;5.056;2023-06-22T05:46:15;10.85;;;8.52;;
49812;SDS011;35706;52.100;5.056;2023-06-22T05:47:16;7.10;;;6.20;;
49812;SDS011;35706;52.100;5.056;2023-06-22T05:48:17;8.95;;;7.65;;
49812;SDS011;35706;52.100;5.056;2023-06-22T05:49:18;13.00;;;9.23;;
49812;SDS011;35706;52.100;5.056;2023-06-22T05:50:18;9.93;;;6.68;;
49812;SDS011;35706;52.100;5.056;2023-06-22T05:51:19;6.68;;;4.88;;
49812;SDS011;35706;52.100;5.056;2023-06-22T05:52:19;10.32;;;8.48;;
49812;SDS011;35706;52.100;5.056;2023-06-22T05:53:19;10.35;;;5.53;;
49812;SDS011;35706;52.100;5.056;2023-06-22T05:54:20;14.35;;;9.70;;
49812;SDS011;35706;52.100;5.056;2023-06-22T05:55:20;12.02;;;8.68;;
49812;SDS011;35706;52.100;5.056;2023-06-22T05:56:20;5.75;;;5.20;;
49812;SDS011;35706;52.100;5.056;2023-06-22T05:57:21;5.90;;;4.78;;
49812;SDS011;35706;52.100;5.056;2023-06-22T05:58:21;7.28;;;6.00;;
49812;SDS011;35706;52.100;5.056;2023-06-22T05:59:22;8.88;;;7.82;;
49812;SDS011;35706;52.100;5.056;2023-06-22T06:00:22;6.78;;;5.32;;
49812;SDS011;35706;52.100;5.056;2023-06-22T06:01:24;13.85;;;10.18;;
49812;SDS011;35706;52.100;5.056;2023-06-22T06:02:25;6.55;;;5.70;;
49812;SDS011;35706;52.100;5.056;2023-06-22T06:03:26;11.35;;;8.20;;
49812;SDS011;35706;52.100;5.056;2023-06-22T06:04:28;6.03;;;4.97;;
49812;SDS011;35706;52.100;5.056;2023-06-22T06:05:29;7.30;;;5.78;;
49812;SDS011;35706;52.100;5.056;2023-06-22T06:06:30;12.88;;;9.00;;
49812;SDS011;35706;52.100;5.056;2023-06-22T06:07:31;10.88;;;9.73;;
49812;SDS011;35706;52.100;5.056;2023-06-22T06:08:34;12.43;;;8.65;;
49812;SDS011;35706;52.100;5.056;2023-06-22T06:09:34;20.23;;;13.35;;
49812;SDS011;35706;52.100;5.056;2023-06-22T06:10:34;11.52;;;7.75;;
49812;SDS011;35706;52.100;5.056;2023-06-22T06:11:35;13.68;;;10.02;;
49812;SDS011;35706;52.100;5.056;2023-06-22T06:12:35;10.45;;;9.07;;
49812;SDS011;35706;52.100;5.056;2023-06-22T06:13:35;13.75;;;10.40;;
49812;SDS011;35706;52.100;5.056;2023-06-22T06:14:36;10.07;;;8.98;;
49812;SDS011;35706;52.100;5.056;2023-06-22T06:15:36;6.25;;;4.90;;
49812;SDS011;35706;52.100;5.056;2023-06-22T06:16:37;13.90;;;8.52;;
49812;SDS011;35706;52.100;5.056;2023-06-22T06:17:47;8.68;;;6.18;;